Time;durP1;ratioP1;P1;durP2;ratioP2;P2;SDS_P1;SDS_P2;PMS_P1;PMS_P2;Temp;Humidity;BMP_temperature;BMP_pressure;BME280_temperature;BME280_humidity;BME280_pressure;Samples;Min_cycle;Max_cycle;Signal;HPM_P1;HPM_P2
2022/08/30 00:03:08;;;;;;;1.98;1.40;;;;;;;16.68;100.00;102291.09;5002541;28;20041;-81
2022/08/30 00:05:38;;;;;;;3.38;1.38;;;;;;;16.67;100.00;102299.94;4955587;28;20263;-81
2022/08/30 00:08:07;;;;;;;3.17;1.10;;;;;;;16.66;100.00;102298.19;4950048;28;20054;-81
2022/08/30 00:10:37;;;;;;;1.80;1.30;;;;;;;16.65;100.00;102299.94;5003878;28;20050;-81
2022/08/30 00:13:06;;;;;;;1.40;1.30;;;;;;;16.65;100.00;102302.59;5009113;28;20057;-81
2022/08/30 00:15:35;;;;;;;4.50;1.40;;;;;;;16.65;100.00;102299.94;4987025;28;20240;-81
2022/08/30 00:18:04;;;;;;;2.35;1.48;;;;;;;16.65;100.00;102302.59;4957919;28;20053;-81
2022/08/30 00:20:34;;;;;;;1.38;1.23;;;;;;;16.63;100.00;102307.03;4953063;28;20542;-82
2022/08/30 00:23:03;;;;;;;3.28;1.42;;;;;;;16.60;100.00;102304.38;4977795;28;20499;-81
2022/08/30 00:25:32;;;;;;;1.48;1.35;;;;;;;16.59;100.00;102307.91;5004785;28;20052;-81
2022/08/30 00:28:01;;;;;;;3.20;1.45;;;;;;;16.56;100.00;102302.63;4988863;28;20061;-81
2022/08/30 00:30:30;;;;;;;6.25;1.20;;;;;;;16.55;100.00;102308.81;4985207;28;20038;-83
2022/08/30 00:33:00;;;;;;;3.42;1.48;;;;;;;16.54;100.00;102307.03;4991281;28;20038;-81
2022/08/30 00:35:28;;;;;;;3.65;1.20;;;;;;;16.51;100.00;102309.69;4978672;28;20046;-82
2022/08/30 00:37:57;;;;;;;1.90;1.40;;;;;;;16.48;100.00;102301.69;4988485;28;20530;-82
2022/08/30 00:40:26;;;;;;;5.60;1.40;;;;;;;16.47;100.00;102310.56;4961427;28;20037;-82
2022/08/30 00:42:58;;;;;;;5.05;1.73;;;;;;;16.45;100.00;102315.00;4986008;28;20061;-80
2022/08/30 00:45:33;;;;;;;3.65;1.70;;;;;;;16.43;100.00;102308.81;4984101;28;20077;-81
2022/08/30 00:48:03;;;;;;;2.47;1.52;;;;;;;16.38;100.00;102312.31;5010647;28;20045;-81
2022/08/30 00:50:36;;;;;;;2.47;1.50;;;;;;;16.35;100.00;102320.31;4978881;28;20347;-81
2022/08/30 00:53:09;;;;;;;3.25;1.40;;;;;;;16.32;100.00;102306.97;4987890;28;20041;-81
2022/08/30 00:55:42;;;;;;;5.57;1.60;;;;;;;16.27;100.00;102310.50;5027981;28;20045;-82
2022/08/30 00:58:18;;;;;;;2.55;1.50;;;;;;;16.24;100.00;102311.41;4977754;28;20427;-81
2022/08/30 01:00:53;;;;;;;4.88;1.67;;;;;;;16.18;100.00;102312.28;5009492;28;20358;-81
2022/08/30 01:03:23;;;;;;;5.53;1.77;;;;;;;16.14;100.00;102314.91;5007126;28;20042;-82
2022/08/30 01:05:52;;;;;;;2.60;1.63;;;;;;;16.11;100.00;102315.78;4976557;28;20053;-80
2022/08/30 01:08:21;;;;;;;3.03;1.92;;;;;;;16.08;100.00;102322.88;4990352;28;20049;-81
2022/08/30 01:10:53;;;;;;;1.40;1.30;;;;;;;16.03;100.00;102312.22;5005847;28;20038;-80
2022/08/30 01:13:25;;;;;;;2.63;1.60;;;;;;;16.00;100.00;102311.31;4975058;28;20428;-81
2022/08/30 01:15:54;;;;;;;1.80;1.65;;;;;;;15.93;100.00;102311.28;4994876;28;20042;-82
2022/08/30 01:18:24;;;;;;;1.88;1.50;;;;;;;15.90;100.00;102305.97;4992483;28;20052;-81
2022/08/30 01:21:02;;;;;;;4.65;1.55;;;;;;;15.85;100.00;102312.13;4972755;28;20050;-81
2022/08/30 01:23:33;;;;;;;2.75;1.70;;;;;;;15.80;100.00;102309.44;4989215;28;20049;-82
2022/08/30 01:26:04;;;;;;;3.50;1.67;;;;;;;15.77;100.00;102312.09;5003245;28;20142;-81
2022/08/30 01:28:34;;;;;;;4.03;1.63;;;;;;;15.74;100.00;102314.72;4981602;28;20041;-81
2022/08/30 01:31:02;;;;;;;4.68;1.45;;;;;;;15.72;100.00;102313.81;5015953;28;20042;-80
2022/08/30 01:33:31;;;;;;;3.05;1.70;;;;;;;15.71;100.00;102318.25;4967583;28;20169;-81
2022/08/30 01:36:03;;;;;;;2.58;1.50;;;;;;;15.70;100.00;102318.22;4942573;28;20387;-80
2022/08/30 01:38:39;;;;;;;1.48;1.35;;;;;;;15.70;100.00;102312.91;5006513;28;20042;-82
2022/08/30 01:41:11;;;;;;;3.30;1.65;;;;;;;15.69;100.00;102320.00;4997566;28;20044;-81
2022/08/30 01:43:40;;;;;;;2.63;1.40;;;;;;;15.68;100.00;102320.88;4969093;28;20076;-82
2022/08/30 01:46:14;;;;;;;4.28;1.40;;;;;;;15.66;100.00;102314.66;4985288;28;20403;-82
2022/08/30 01:48:43;;;;;;;;;;;;;;;15.64;100.00;102323.53;4980719;28;20133;-82
2022/08/30 01:51:24;;;;;;;1.58;1.48;;;;;;;15.60;100.00;102323.50;5002763;28;19921;-82
2022/08/30 01:53:53;;;;;;;2.45;1.40;;;;;;;15.62;100.00;102317.31;4971735;28;20045;-81
2022/08/30 01:56:23;;;;;;;3.15;1.65;;;;;;;15.62;100.00;102319.97;4983809;28;20053;-82
2022/08/30 01:58:52;;;;;;;5.97;1.40;;;;;;;15.62;100.00;102319.97;4985514;28;20046;-82
2022/08/30 02:01:24;;;;;;;3.50;1.40;;;;;;;15.64;100.00;102334.16;5000605;28;20045;-82
2022/08/30 02:03:55;;;;;;;3.95;1.42;;;;;;;15.64;100.00;102335.03;4986366;28;20069;-81
2022/08/30 02:06:24;;;;;;;2.38;1.27;;;;;;;15.64;100.00;102334.16;4948023;28;20034;-81
2022/08/30 02:08:52;;;;;;;1.70;1.23;;;;;;;15.64;100.00;102331.50;4973636;28;20034;-82
2022/08/30 02:11:21;;;;;;;1.70;1.20;;;;;;;15.64;100.00;102328.84;4971260;28;20507;-82
2022/08/30 02:13:49;;;;;;;3.55;1.48;;;;;;;15.63;100.00;102327.91;5003036;28;20450;-81
2022/08/30 02:16:22;;;;;;;3.83;1.42;;;;;;;15.63;100.00;102324.38;4989596;28;20045;-81
2022/08/30 02:18:53;;;;;;;2.92;1.30;;;;;;;15.60;100.00;102342.09;4978485;28;20044;-80
2022/08/30 02:21:22;;;;;;;;;;;;;;;15.58;100.00;102341.19;5003806;28;20380;-82
2022/08/30 02:23:51;;;;;;;4.85;1.55;;;;;;;15.55;100.00;102343.81;4947330;28;19925;-81
2022/08/30 02:26:20;;;;;;;1.60;1.30;;;;;;;15.53;100.00;102336.72;4983912;28;20041;-82
2022/08/30 02:28:49;;;;;;;3.35;1.17;;;;;;;15.52;100.00;102341.16;4984995;28;20026;-81
2022/08/30 02:31:20;;;;;;;2.40;1.65;;;;;;;15.51;100.00;102338.50;4996501;28;20045;-82
2022/08/30 02:33:50;;;;;;;3.40;1.27;;;;;;;15.49;100.00;102335.81;5000760;28;20171;-80
2022/08/30 02:36:20;;;;;;;1.83;1.30;;;;;;;15.47;100.00;102337.56;4998377;28;20414;-82
2022/08/30 02:38:50;;;;;;;3.42;1.38;;;;;;;15.47;100.00;102344.66;4962031;28;20045;-82
2022/08/30 02:41:20;;;;;;;2.45;1.30;;;;;;;15.44;100.00;102337.53;4963014;28;20041;-81
2022/08/30 02:43:49;;;;;;;1.70;1.10;;;;;;;15.44;100.00;102341.97;4967566;28;20233;-81
2022/08/30 02:46:18;;;;;;;2.50;1.20;;;;;;;15.43;100.00;102334.91;5006683;28;20038;-82
2022/08/30 02:48:46;;;;;;;2.25;1.33;;;;;;;15.45;100.00;102336.69;4966049;28;20658;-81
2022/08/30 02:51:15;;;;;;;3.30;1.42;;;;;;;15.49;100.00;102345.56;4989461;28;20072;-81
2022/08/30 02:53:44;;;;;;;4.80;1.40;;;;;;;15.51;100.00;102335.84;4938182;28;20560;-80
2022/08/30 02:56:13;;;;;;;4.80;1.25;;;;;;;15.53;100.00;102342.91;4993832;28;20045;-81
2022/08/30 02:58:43;;;;;;;6.22;1.70;;;;;;;15.57;100.00;102344.72;4983077;28;20232;-80
2022/08/30 03:01:14;;;;;;;2.77;1.37;;;;;;;15.59;100.00;102337.66;5002592;28;20529;-81
2022/08/30 03:03:45;;;;;;;5.47;1.63;;;;;;;15.60;100.00;102338.56;4984844;28;20400;-82
2022/08/30 03:06:14;;;;;;;4.55;1.27;;;;;;;15.59;100.00;102336.75;4973894;28;20038;-81
2022/08/30 03:08:43;;;;;;;3.55;1.70;;;;;;;15.58;100.00;102341.19;4956326;28;20051;-80
2022/08/30 03:11:12;;;;;;;2.08;1.23;;;;;;;15.56;100.00;102348.28;4961217;28;20050;-82
2022/08/30 03:13:41;;;;;;;2.25;1.58;;;;;;;15.55;100.00;102333.19;4986885;28;20045;-81
2022/08/30 03:16:09;;;;;;;3.20;1.38;;;;;;;15.53;100.00;102342.91;5013226;28;20407;-81
2022/08/30 03:18:38;;;;;;;1.45;1.05;;;;;;;15.51;100.00;102338.50;4989558;28;20038;-81
2022/08/30 03:21:15;;;;;;;5.18;1.77;;;;;;;15.49;100.00;102343.78;4967902;28;20053;-81
2022/08/30 03:23:43;;;;;;;2.03;1.83;;;;;;;15.48;100.00;102350.00;5020020;28;20049;-81
2022/08/30 03:26:13;;;;;;;2.50;1.20;;;;;;;15.47;100.00;102345.53;4968199;28;20110;-81
2022/08/30 03:28:42;;;;;;;3.33;1.33;;;;;;;15.46;100.00;102350.84;4980901;28;20517;-82
2022/08/30 03:31:12;;;;;;;2.70;1.20;;;;;;;15.43;100.00;102341.09;5019703;28;20046;-81
2022/08/30 03:33:40;;;;;;;1.92;1.30;;;;;;;15.42;100.00;102343.75;4994813;28;20057;-81
2022/08/30 03:36:10;;;;;;;3.33;1.70;;;;;;;15.40;100.00;102343.72;4975673;28;20073;-82
2022/08/30 03:38:39;;;;;;;1.97;1.40;;;;;;;15.40;100.00;102335.75;4956172;28;20253;-81
2022/08/30 03:41:07;;;;;;;3.28;1.70;;;;;;;15.38;100.00;102332.19;4948895;28;20300;-82
2022/08/30 03:43:36;;;;;;;1.73;1.48;;;;;;;15.35;100.00;102327.75;4975972;28;20038;-82
2022/08/30 03:46:05;;;;;;;3.38;1.40;;;;;;;15.33;100.00;102329.53;4990903;28;20045;-82
2022/08/30 03:48:33;;;;;;;5.75;1.23;;;;;;;15.31;100.00;102339.25;4976266;28;20358;-81
2022/08/30 03:51:02;;;;;;;1.55;1.33;;;;;;;15.28;100.00;102341.88;4961472;28;20488;-81
2022/08/30 03:53:33;;;;;;;3.92;1.80;;;;;;;15.26;100.00;102342.75;4957701;28;20061;-81
2022/08/30 03:56:02;;;;;;;1.70;1.60;;;;;;;15.23;100.00;102342.72;4989803;28;20053;-81
2022/08/30 03:58:31;;;;;;;2.50;1.30;;;;;;;15.21;100.00;102343.56;4952858;28;20038;-82
2022/08/30 04:01:03;;;;;;;2.38;1.80;;;;;;;15.19;100.00;102347.09;4973108;28;20038;-82
2022/08/30 04:03:32;;;;;;;2.08;1.80;;;;;;;15.18;100.00;102348.88;5007536;28;20042;-82
2022/08/30 04:06:01;;;;;;;2.20;2.10;;;;;;;15.18;100.00;102343.56;4966935;28;20441;-81
2022/08/30 04:08:29;;;;;;;1.80;1.63;;;;;;;15.18;100.00;102355.97;4963129;28;20539;-82
2022/08/30 04:10:59;;;;;;;2.97;1.80;;;;;;;15.16;100.00;102348.00;4973537;28;20380;-82
2022/08/30 04:13:28;;;;;;;4.35;2.53;;;;;;;15.16;100.00;102355.03;4951287;28;20446;-81
2022/08/30 04:15:59;;;;;;;5.20;2.10;;;;;;;15.15;100.00;102359.47;4964819;28;20046;-82
2022/08/30 04:18:27;;;;;;;3.38;2.08;;;;;;;15.14;100.00;102354.13;4991596;28;20235;-81
2022/08/30 04:20:56;;;;;;;2.47;1.95;;;;;;;15.13;100.00;102353.25;4966480;28;20034;-82
2022/08/30 04:23:24;;;;;;;3.92;2.30;;;;;;;15.12;100.00;102350.59;4979699;28;20050;-82
2022/08/30 04:25:53;;;;;;;2.78;1.80;;;;;;;15.11;100.00;102349.69;5015842;28;20045;-82
2022/08/30 04:28:22;;;;;;;4.00;1.80;;;;;;;15.10;100.00;102347.91;4977992;28;20055;-82
2022/08/30 04:30:50;;;;;;;3.83;1.77;;;;;;;15.09;100.00;102354.13;4984183;28;20050;-82
2022/08/30 04:33:19;;;;;;;2.50;2.00;;;;;;;15.09;100.00;102347.94;4953793;28;20649;-80
2022/08/30 04:35:48;;;;;;;3.55;2.20;;;;;;;15.08;100.00;102348.78;4960691;28;20050;-80
2022/08/30 04:38:17;;;;;;;3.70;2.03;;;;;;;15.06;100.00;102350.53;4996297;28;20050;-80
2022/08/30 04:40:49;;;;;;;2.58;2.30;;;;;;;15.04;100.00;102363.78;4982484;28;20034;-81
2022/08/30 04:43:17;;;;;;;1.90;1.80;;;;;;;15.02;100.00;102366.44;4934152;28;20061;-80
2022/08/30 04:45:47;;;;;;;4.22;1.95;;;;;;;14.98;100.00;102369.06;4998204;28;20495;-80
2022/08/30 04:48:16;;;;;;;4.82;2.05;;;;;;;14.97;100.00;102372.56;4976853;28;20157;-81
2022/08/30 04:50:45;;;;;;;4.35;2.95;;;;;;;14.95;100.00;102374.31;4944581;28;20041;-81
2022/08/30 04:53:14;;;;;;;3.55;2.10;;;;;;;14.91;100.00;102373.41;4973318;28;20046;-81
2022/08/30 04:55:43;;;;;;;3.22;2.10;;;;;;;14.89;100.00;102368.97;4986668;28;20039;-82
2022/08/30 04:58:11;;;;;;;3.35;2.10;;;;;;;14.86;100.00;102375.16;4981669;28;20258;-82
2022/08/30 05:00:42;;;;;;;3.10;1.77;;;;;;;14.82;100.00;102368.03;4949000;28;20038;-81
2022/08/30 05:03:12;;;;;;;4.15;2.17;;;;;;;14.79;100.00;102371.53;4973778;28;20291;-80
2022/08/30 05:05:47;;;;;;;2.75;1.90;;;;;;;14.74;100.00;102375.88;4990107;28;20046;-81
2022/08/30 05:08:18;;;;;;;2.42;1.92;;;;;;;14.70;100.00;102379.38;4987090;28;20030;-80
2022/08/30 05:10:52;;;;;;;2.17;1.95;;;;;;;14.69;100.00;102388.25;4963006;28;20037;-81
2022/08/30 05:13:21;;;;;;;3.28;2.08;;;;;;;14.69;100.00;102382.03;4981436;28;20263;-81
2022/08/30 05:16:05;;;;;;;3.35;1.85;;;;;;;14.69;100.00;102384.66;4941476;28;20526;-81
2022/08/30 05:18:35;;;;;;;5.63;1.80;;;;;;;14.69;100.00;102388.25;4990119;28;20038;-82
2022/08/30 05:21:08;;;;;;;3.63;1.75;;;;;;;14.71;100.00;102390.91;4980179;28;20050;-81
2022/08/30 05:23:38;;;;;;;4.45;2.13;;;;;;;14.73;100.00;102387.41;5010050;28;20072;-81
2022/08/30 05:26:16;;;;;;;2.90;1.88;;;;;;;14.74;100.00;102390.94;4974589;28;20038;-81
2022/08/30 05:28:45;;;;;;;2.33;1.73;;;;;;;14.75;100.00;102396.25;5000443;28;20046;-80
2022/08/30 05:31:25;;;;;;;3.25;1.83;;;;;;;14.76;100.00;102391.84;4966899;28;20140;-81
2022/08/30 05:33:54;;;;;;;5.28;2.20;;;;;;;14.77;100.00;102402.47;4982771;28;20049;-82
2022/08/30 05:36:27;;;;;;;5.15;1.88;;;;;;;14.78;100.00;102408.66;4985412;28;20045;-81
2022/08/30 05:38:56;;;;;;;4.93;1.60;;;;;;;14.79;100.00;102410.44;5002107;28;20046;-81
2022/08/30 05:41:26;;;;;;;1.88;1.70;;;;;;;14.81;100.00;102411.34;4956719;28;20281;-81
2022/08/30 05:43:56;;;;;;;2.60;1.50;;;;;;;14.81;100.00;102401.63;4976678;28;20258;-80
2022/08/30 05:46:28;;;;;;;6.35;2.00;;;;;;;14.86;100.00;102409.66;4935418;28;20034;-82
2022/08/30 05:48:57;;;;;;;1.88;1.48;;;;;;;14.90;100.00;102408.81;4978513;28;20042;-82
2022/08/30 05:51:27;;;;;;;2.55;1.52;;;;;;;14.98;100.00;102398.25;4977774;28;20034;-81
2022/08/30 05:53:57;;;;;;;;;;;;;;;15.04;100.00;102395.66;4986159;28;20054;-82
2022/08/30 05:56:35;;;;;;;2.28;1.60;;;;;;;15.13;100.00;102405.47;5009359;28;19925;-81
2022/08/30 05:59:05;;;;;;;1.90;1.48;;;;;;;15.21;100.00;102398.47;5004273;28;20160;-81
2022/08/30 06:01:43;;;;;;;3.05;1.60;;;;;;;15.30;100.00;102403.84;4958532;28;20034;-80
2022/08/30 06:04:13;;;;;;;5.45;1.45;;;;;;;15.40;100.00;102404.81;4961889;28;20500;-80
2022/08/30 06:06:42;;;;;;;3.42;1.95;;;;;;;15.48;100.00;102403.13;4995096;28;20057;-81
2022/08/30 06:09:13;;;;;;;3.07;1.27;;;;;;;15.57;100.00;102408.47;5006714;28;20695;-80
2022/08/30 06:11:43;;;;;;;4.65;1.35;;;;;;;15.67;100.00;102405.91;5004445;28;20985;-81
2022/08/30 06:14:13;;;;;;;5.90;1.57;;;;;;;15.75;100.00;102404.22;4986305;28;20181;-81
2022/08/30 06:16:44;;;;;;;1.85;1.15;;;;;;;15.84;100.00;102396.31;4935193;28;20297;-80
2022/08/30 06:19:14;;;;;;;1.35;1.20;;;;;;;15.93;100.00;102404.31;4980701;28;20058;-83
2022/08/30 06:21:47;;;;;;;3.93;1.50;;;;;;;16.06;100.00;102409.72;4968220;28;20081;-80
2022/08/30 06:24:16;;;;;;;2.13;1.42;;;;;;;16.21;100.00;102415.09;4974705;28;20395;-82
2022/08/30 06:26:46;;;;;;;1.30;1.20;;;;;;;16.32;100.00;102405.41;4973120;28;20343;-80
2022/08/30 06:29:19;;;;;;;1.50;1.40;;;;;;;16.40;100.00;102402.78;4961958;28;20049;-81
2022/08/30 06:31:48;;;;;;;2.03;1.40;;;;;;;16.46;100.00;102418.75;4981707;28;20148;-80
2022/08/30 06:34:17;;;;;;;3.05;1.60;;;;;;;16.51;100.00;102411.69;4974631;28;20411;-80
2022/08/30 06:36:46;;;;;;;2.22;1.58;;;;;;;16.55;100.00;102407.28;4964789;28;20243;-80
2022/08/30 06:39:15;;;;;;;2.33;1.50;;;;;;;16.56;100.00;102415.25;4975617;28;20041;-81
2022/08/30 06:41:43;;;;;;;1.75;1.10;;;;;;;16.60;100.00;102415.25;4991139;28;20050;-81
2022/08/30 06:44:24;;;;;;;3.45;1.60;;;;;;;16.66;100.00;102415.28;4988617;28;20403;-81
2022/08/30 06:46:52;;;;;;;2.50;1.27;;;;;;;16.69;100.00;102405.53;4964322;28;20693;-80
2022/08/30 06:49:20;;;;;;;1.83;1.55;;;;;;;16.73;100.00;102404.66;4999647;28;20053;-80
2022/08/30 06:51:50;;;;;;;4.10;1.10;;;;;;;16.81;100.00;102409.13;4965571;28;20057;-80
2022/08/30 06:54:18;;;;;;;1.23;1.13;;;;;;;16.90;100.00;102401.16;4988788;28;20429;-81
2022/08/30 06:56:47;;;;;;;2.00;0.95;;;;;;;17.01;100.00;102406.50;5007496;28;20045;-80
2022/08/30 06:59:26;;;;;;;1.98;1.15;;;;;;;17.15;100.00;102402.97;4957998;28;20046;-81
2022/08/30 07:01:56;;;;;;;1.20;1.10;;;;;;;17.31;100.00;102400.31;5000897;28;20038;-79
2022/08/30 07:04:25;;;;;;;;;;;;;;;17.40;100.00;102400.31;4958362;28;20042;-80
2022/08/30 07:06:57;;;;;;;1.80;1.08;;;;;;;17.47;100.00;102407.41;4968099;28;19929;-80
2022/08/30 07:09:26;;;;;;;4.90;1.58;;;;;;;17.50;100.00;102415.44;4989595;28;20048;-81
2022/08/30 07:11:54;;;;;;;1.65;1.02;;;;;;;17.60;100.00;102407.41;4958407;28;20069;-80
2022/08/30 07:14:23;;;;;;;3.47;1.30;;;;;;;17.82;100.00;102410.91;4969137;28;20038;-79
2022/08/30 07:16:51;;;;;;;3.15;1.15;;;;;;;18.08;100.00;102408.22;4955609;28;20073;-79
2022/08/30 07:19:21;;;;;;;4.65;1.30;;;;;;;18.26;100.00;102421.50;4975167;28;20526;-84
2022/08/30 07:21:50;;;;;;;4.03;1.58;;;;;;;18.35;100.00;102422.34;4975135;28;20750;-80
2022/08/30 07:24:19;;;;;;;6.15;1.30;;;;;;;18.36;100.00;102414.34;4968772;28;20035;-80
2022/08/30 07:26:50;;;;;;;2.05;1.20;;;;;;;18.36;100.00;102408.13;4989573;28;20045;-79
2022/08/30 07:29:20;;;;;;;2.45;1.30;;;;;;;18.39;100.00;102410.75;4984118;28;20081;-80
2022/08/30 07:31:49;;;;;;;2.15;1.10;;;;;;;18.44;100.00;102422.31;4991277;28;20660;-81
2022/08/30 07:34:17;;;;;;;0.90;0.90;;;;;;;18.40;100.00;102423.22;4954753;28;20046;-80
2022/08/30 07:36:52;;;;;;;0.93;0.90;;;;;;;18.34;100.00;102417.94;4965689;28;20047;-79
2022/08/30 07:39:21;;;;;;;2.00;1.33;;;;;;;18.27;99.17;102422.38;4963546;28;20043;-79
2022/08/30 07:41:49;;;;;;;2.05;1.30;;;;;;;18.26;99.63;102424.19;4944210;28;20063;-79
2022/08/30 07:44:18;;;;;;;0.98;0.82;;;;;;;18.27;99.05;102425.94;4990073;28;20373;-79
2022/08/30 07:46:50;;;;;;;2.92;1.02;;;;;;;18.31;99.61;102419.69;4956120;28;20043;-79
2022/08/30 07:49:19;;;;;;;1.85;0.90;;;;;;;18.36;98.70;102419.69;4958409;28;20041;-80
2022/08/30 07:51:47;;;;;;;2.97;1.30;;;;;;;18.38;98.42;102430.34;4972982;28;20039;-81
2022/08/30 07:54:16;;;;;;;0.93;0.85;;;;;;;18.38;97.00;102422.34;4968333;28;20047;-81
2022/08/30 07:56:47;;;;;;;1.25;1.00;;;;;;;18.38;97.06;102420.56;4964696;28;20045;-81
2022/08/30 07:59:16;;;;;;;1.10;1.00;;;;;;;18.38;96.38;102428.56;4994413;28;20058;-83
2022/08/30 08:01:44;;;;;;;2.40;0.95;;;;;;;18.39;95.71;102434.78;4979871;28;20039;-81
2022/08/30 08:04:13;;;;;;;1.10;1.00;;;;;;;18.39;95.62;102429.44;4990256;28;20031;-81
2022/08/30 08:06:44;;;;;;;2.45;1.02;;;;;;;18.38;95.77;102427.69;4938054;28;20042;-80
2022/08/30 08:09:12;;;;;;;2.15;0.95;;;;;;;18.46;96.00;102428.53;4978858;28;20042;-81
2022/08/30 08:11:41;;;;;;;1.10;0.95;;;;;;;18.52;95.40;102423.16;4957898;28;20055;-81
2022/08/30 08:14:10;;;;;;;0.95;0.95;;;;;;;18.59;94.60;102422.25;5002943;28;20054;-81
2022/08/30 08:16:41;;;;;;;1.23;1.10;;;;;;;18.68;94.66;102419.53;4952504;28;20039;-82
2022/08/30 08:19:11;;;;;;;1.20;0.98;;;;;;;18.70;94.54;102422.19;4974601;28;20393;-82
2022/08/30 08:21:40;;;;;;;4.28;1.08;;;;;;;18.85;95.04;102419.47;4963588;28;20073;-81
2022/08/30 08:24:09;;;;;;;1.10;1.00;;;;;;;19.00;94.76;102428.28;4978567;28;20046;-81
2022/08/30 08:26:38;;;;;;;1.10;1.00;;;;;;;19.03;93.32;102428.25;4947633;28;20645;-81
2022/08/30 08:29:12;;;;;;;1.60;0.90;;;;;;;19.00;93.88;102423.81;4972948;28;20058;-82
2022/08/30 08:31:41;;;;;;;1.23;0.88;;;;;;;19.08;94.39;102419.28;4988826;28;20046;-81
2022/08/30 08:34:10;;;;;;;1.48;1.10;;;;;;;19.18;94.29;102429.91;4985093;28;20057;-81
2022/08/30 08:36:39;;;;;;;2.05;1.15;;;;;;;19.20;93.64;102428.13;4945788;28;22669;-80
2022/08/30 08:39:08;;;;;;;1.17;1.15;;;;;;;19.18;93.47;102429.91;4963449;28;20057;-81
2022/08/30 08:42:12;;;;;;;1.98;1.15;;;;;;;19.16;92.00;102432.59;4977605;28;20103;-80
2022/08/30 08:44:43;;;;;;;3.45;1.63;;;;;;;19.12;93.70;102430.84;4940493;28;20042;-81
2022/08/30 08:47:20;;;;;;;2.83;1.38;;;;;;;19.13;93.07;102431.72;4974565;28;20043;-81
2022/08/30 08:49:55;;;;;;;1.52;1.10;;;;;;;19.27;93.21;102435.19;4977819;28;20276;-80
2022/08/30 08:55:23;;;;;;;1.83;1.20;;;;;;;19.40;92.63;102434.19;4969245;28;20034;-80
2022/08/30 08:57:52;;;;;;;1.55;0.95;;;;;;;19.44;92.31;102430.59;4969747;28;20057;-81
2022/08/30 09:00:20;;;;;;;2.63;1.10;;;;;;;19.58;92.12;102432.25;4989347;28;20050;-82
2022/08/30 09:02:57;;;;;;;2.75;1.05;;;;;;;19.65;91.89;102431.28;4971468;28;20079;-80
2022/08/30 09:05:36;;;;;;;4.85;1.13;;;;;;;19.61;88.69;102432.22;4973810;28;20049;-81
2022/08/30 09:08:10;;;;;;;1.60;1.00;;;;;;;19.62;88.82;102431.31;4918333;28;20050;-81
2022/08/30 09:10:42;;;;;;;2.60;1.10;;;;;;;19.66;88.63;102438.44;4984149;28;20049;-80
2022/08/30 09:13:19;;;;;;;2.50;1.00;;;;;;;19.59;87.86;102436.72;4956088;28;20499;-81
2022/08/30 09:15:52;;;;;;;0.95;0.95;;;;;;;19.45;88.17;102429.69;4995471;28;20539;-80
2022/08/30 09:18:46;;;;;;;3.53;1.33;;;;;;;19.46;87.86;102426.13;4977767;28;20534;-80
2022/08/30 09:21:26;;;;;;;1.35;1.20;;;;;;;19.52;89.71;102418.94;4967965;28;20058;-81
2022/08/30 09:23:58;;;;;;;3.17;1.00;;;;;;;19.51;88.58;102418.06;4941592;28;20035;-81
2022/08/30 09:26:30;;;;;;;2.05;1.15;;;;;;;19.41;88.25;102430.63;4970692;28;20034;-81
2022/08/30 09:29:01;;;;;;;2.03;1.05;;;;;;;19.40;89.16;102425.28;4978841;28;20037;-81
2022/08/30 09:31:52;;;;;;;1.08;0.98;;;;;;;19.39;88.66;102423.50;4960579;28;20031;-83
2022/08/30 09:34:42;;;;;;;2.83;1.38;;;;;;;19.30;88.65;102424.50;4966554;28;20053;-80
2022/08/30 09:37:25;;;;;;;0.90;0.90;;;;;;;19.27;89.48;102420.03;4983629;28;20046;-81
2022/08/30 09:39:54;;;;;;;2.53;1.00;;;;;;;19.33;88.59;102420.91;4976511;28;20050;-81
2022/08/30 09:42:25;;;;;;;1.83;0.90;;;;;;;19.36;86.93;102424.44;5002460;28;20053;-81
2022/08/30 09:45:11;;;;;;;1.35;0.80;;;;;;;19.42;86.22;102424.38;4969052;28;20062;-82
2022/08/30 09:47:42;;;;;;;2.03;1.05;;;;;;;19.60;86.86;102422.41;4993563;28;20060;-80
2022/08/30 09:50:18;;;;;;;1.48;1.05;;;;;;;19.71;85.91;102417.84;5014358;28;20038;-81
2022/08/30 09:53:23;;;;;;;2.58;1.10;;;;;;;19.73;86.18;102413.41;4977103;28;20315;-80
2022/08/30 09:55:54;;;;;;;3.60;0.93;;;;;;;19.76;86.24;102413.41;4979008;28;20174;-81
2022/08/30 09:58:40;;;;;;;1.85;0.75;;;;;;;19.84;83.69;102414.19;4997976;28;20042;-81
2022/08/30 10:01:22;;;;;;;1.83;1.13;;;;;;;19.80;83.92;102404.44;4986375;28;20042;-81
2022/08/30 10:04:07;;;;;;;1.80;1.00;;;;;;;19.81;84.19;102405.31;5007076;28;20038;-80
2022/08/30 10:06:43;;;;;;;1.55;0.88;;;;;;;19.76;81.81;102405.38;5011640;28;20137;-81
2022/08/30 10:09:21;;;;;;;1.88;1.00;;;;;;;19.82;82.02;102397.28;4967197;28;20055;-81
2022/08/30 10:12:03;;;;;;;1.33;0.90;;;;;;;19.99;83.05;102401.56;4970875;28;20068;-81
2022/08/30 10:15:20;;;;;;;1.35;1.00;;;;;;;20.15;80.52;102404.94;4981467;28;20058;-80
2022/08/30 10:17:58;;;;;;;1.83;0.95;;;;;;;20.14;77.19;102409.41;4978650;28;20065;-80
2022/08/30 10:21:12;;;;;;;2.13;1.20;;;;;;;20.10;77.56;102399.66;4980617;28;20484;-80
2022/08/30 10:23:52;;;;;;;1.38;0.93;;;;;;;19.97;78.02;102403.38;5008974;28;20061;-80
2022/08/30 10:26:37;;;;;;;1.67;0.82;;;;;;;19.90;77.69;102405.22;4960438;28;20487;-81
2022/08/30 10:29:18;;;;;;;1.00;0.90;;;;;;;19.97;79.03;102406.91;5002541;28;20503;-80
2022/08/30 10:31:57;;;;;;;4.13;1.13;;;;;;;20.08;78.61;102408.59;4991262;28;20543;-80
2022/08/30 10:34:34;;;;;;;5.55;0.93;;;;;;;20.19;78.43;102401.34;5015856;28;20045;-80
2022/08/30 10:37:08;;;;;;;4.22;1.00;;;;;;;20.33;78.36;102411.84;4974035;28;20736;-79
2022/08/30 10:39:45;;;;;;;1.42;0.90;;;;;;;20.35;77.33;102404.69;4982132;28;20062;-82
2022/08/30 10:42:31;;;;;;;1.08;0.90;;;;;;;20.44;78.16;102396.53;4983950;28;20049;-80
2022/08/30 10:45:12;;;;;;;2.17;1.05;;;;;;;20.56;76.76;102415.09;5010264;28;20050;-80
2022/08/30 10:47:52;;;;;;;1.63;1.20;;;;;;;20.51;75.33;102403.59;4986831;28;20058;-82
2022/08/30 10:50:33;;;;;;;3.65;1.20;;;;;;;20.41;75.51;102407.28;5005742;28;20407;-81
2022/08/30 10:53:14;;;;;;;2.97;1.02;;;;;;;20.29;76.50;102402.09;5009068;28;20057;-80
2022/08/30 10:56:10;;;;;;;2.33;1.02;;;;;;;20.11;76.73;102398.72;4979708;28;20296;-80
2022/08/30 10:58:42;;;;;;;2.00;0.98;;;;;;;20.13;76.92;102396.03;4986083;28;20272;-80
2022/08/30 11:01:20;;;;;;;1.75;1.10;;;;;;;20.25;76.88;102402.13;4948014;28;20037;-79
2022/08/30 11:04:20;;;;;;;0.90;0.90;;;;;;;20.43;77.39;102397.44;5004552;28;20052;-80
2022/08/30 11:06:55;;;;;;;2.10;1.02;;;;;;;20.59;75.15;102399.00;5009153;28;20056;-80
2022/08/30 11:09:47;;;;;;;2.05;0.95;;;;;;;20.77;73.79;102397.00;5001077;28;20054;-81
2022/08/30 11:12:28;;;;;;;;;;;;;;;20.79;74.21;102398.75;4967252;28;20407;-81
2022/08/30 11:14:57;;;;;;;1.65;1.00;;;;;;;20.75;76.63;102397.00;5013470;28;20398;-81
2022/08/30 11:17:42;;;;;;;1.35;1.00;;;;;;;20.67;73.73;102404.28;4989945;28;20045;-80
2022/08/30 11:20:31;;;;;;;1.50;1.10;;;;;;;20.45;75.60;102398.28;4992440;28;20057;-79
2022/08/30 11:23:17;;;;;;;3.47;1.00;;;;;;;20.38;76.09;102385.91;4993455;28;20049;-80
2022/08/30 11:25:53;;;;;;;1.35;0.85;;;;;;;20.53;77.67;102391.06;5003518;28;20335;-80
2022/08/30 11:28:35;;;;;;;1.55;1.10;;;;;;;20.62;76.25;102390.06;4964061;28;20049;-80
2022/08/30 11:31:07;;;;;;;1.67;1.13;;;;;;;20.71;76.59;102391.72;4998046;28;20056;-80
2022/08/30 11:33:48;;;;;;;6.72;1.00;;;;;;;20.77;75.02;102378.25;4970559;28;20042;-80
2022/08/30 11:36:28;;;;;;;1.98;1.00;;;;;;;20.85;71.84;102381.72;5017430;28;20046;-80
2022/08/30 11:39:10;;;;;;;1.02;0.70;;;;;;;20.96;73.67;102377.06;5002815;28;20058;-79
2022/08/30 11:42:06;;;;;;;0.82;0.82;;;;;;;21.03;74.27;102369.81;4966360;28;20527;-80
2022/08/30 11:44:35;;;;;;;0.80;0.80;;;;;;;21.10;74.65;102371.47;4949067;28;20157;-80
2022/08/30 11:47:46;;;;;;;2.92;0.95;;;;;;;21.21;73.03;102374.84;4965794;28;20415;-80
2022/08/30 11:50:21;;;;;;;1.73;1.23;;;;;;;21.29;75.03;102361.31;4972544;28;20041;-80
2022/08/30 11:52:58;;;;;;;1.50;0.90;;;;;;;21.39;69.62;102373.63;4976086;28;20232;-81